createdAt,value
2019-02-15T00:00:04.322Z,949.7
2019-02-15T00:01:04.303Z,951.3
2019-02-15T00:02:04.188Z,951.3
2019-02-15T00:03:03.918Z,951.2
2019-02-15T00:04:03.662Z,951.2
2019-02-15T00:05:03.386Z,951.2
2019-02-15T00:06:03.176Z,951.2
2019-02-15T00:07:02.905Z,951.2
2019-02-15T00:08:02.620Z,951.1
2019-02-15T00:09:02.358Z,951.3
2019-02-15T00:10:02.739Z,951.2
2019-02-15T00:11:02.632Z,951.2
2019-02-15T00:12:02.508Z,951.3
2019-02-15T00:13:02.444Z,951.2
2019-02-15T00:14:02.361Z,951.4
2019-02-15T00:15:02.424Z,951.4
2019-02-15T00:16:02.303Z,951.4
2019-02-15T00:17:02.202Z,951.3
2019-02-15T00:18:02.097Z,951.3
2019-02-15T00:19:01.996Z,951.4
2019-02-15T00:20:02.400Z,951.2
2019-02-15T00:21:02.360Z,951.2
2019-02-15T00:22:02.262Z,951.3
2019-02-15T00:23:02.170Z,951.3
2019-02-15T00:24:02.055Z,951.2
2019-02-15T00:25:01.962Z,951.3
2019-02-15T00:26:01.863Z,951.3
2019-02-15T00:27:01.802Z,951.3
2019-02-15T00:28:01.699Z,951.3
2019-02-15T00:29:01.611Z,951.4
2019-02-15T00:30:01.973Z,950.5
2019-02-15T00:31:01.902Z,951.4
2019-02-15T00:32:01.799Z,951.4
2019-02-15T00:33:01.702Z,951.4
2019-02-15T00:34:01.600Z,951.4
2019-02-15T00:35:01.537Z,951.3
2019-02-15T00:36:01.434Z,951.3
2019-02-15T00:37:01.326Z,951.3
2019-02-15T00:38:01.222Z,951.3
2019-02-15T00:39:01.105Z,951.3
2019-02-15T00:40:01.415Z,951.2
2019-02-15T00:41:01.311Z,950.6
2019-02-15T00:42:01.182Z,951.3
2019-02-15T00:43:01.138Z,951.3
2019-02-15T00:44:00.868Z,951.3
2019-02-15T00:45:01.002Z,951.2
2019-02-15T00:46:00.749Z,951.3
2019-02-15T00:47:00.472Z,951.3
2019-02-15T00:48:00.196Z,951.2
2019-02-15T00:48:59.921Z,951.1
2019-02-15T00:50:00.402Z,951.3
2019-02-15T00:51:00.307Z,951.3
2019-02-15T00:52:00.216Z,951.3
2019-02-15T00:53:00.091Z,951.3
2019-02-15T00:54:00.011Z,951.3
2019-02-15T00:54:59.883Z,951.2
2019-02-15T00:55:59.788Z,949.7
2019-02-15T00:56:59.678Z,951.2
2019-02-15T00:57:59.571Z,951.1
2019-02-15T00:58:59.441Z,951.2
2019-02-15T01:00:02.516Z,951.2
2019-02-15T01:01:02.398Z,951.2
2019-02-15T01:02:02.304Z,951.2
2019-02-15T01:03:02.203Z,951.3
2019-02-15T01:04:02.099Z,951.2
2019-02-15T01:05:01.985Z,951
2019-02-15T01:06:01.899Z,951
2019-02-15T01:07:01.797Z,951.3
2019-02-15T01:08:01.718Z,951.2
2019-02-15T01:09:01.595Z,951
2019-02-15T01:10:01.975Z,951.3
2019-02-15T01:11:01.913Z,951.1
2019-02-15T01:12:01.657Z,951.2
2019-02-15T01:13:01.393Z,951.2
2019-02-15T01:14:01.145Z,951.3
2019-02-15T01:15:00.973Z,951.3
2019-02-15T01:16:00.751Z,951.2
2019-02-15T01:17:00.481Z,951.2
2019-02-15T01:18:00.208Z,951.2
2019-02-15T01:18:59.959Z,951.2
2019-02-15T01:20:00.594Z,951.2
2019-02-15T01:21:00.494Z,951.2
2019-02-15T01:22:00.393Z,951.3
2019-02-15T01:23:00.295Z,951.2
2019-02-15T01:24:00.195Z,951.2
2019-02-15T01:25:00.111Z,951.2
2019-02-15T01:26:00.131Z,951.2
2019-02-15T01:27:00.033Z,951.1
2019-02-15T01:27:59.927Z,951.1
2019-02-15T01:28:59.823Z,951.1
2019-02-15T01:30:00.373Z,951.1
2019-02-15T01:31:00.264Z,951.2
2019-02-15T01:32:00.143Z,951.1
2019-02-15T01:33:00.020Z,949.7
2019-02-15T01:33:59.925Z,951.1
2019-02-15T01:34:59.825Z,950.8
2019-02-15T01:35:59.711Z,951
2019-02-15T01:36:59.596Z,951
2019-02-15T01:37:59.497Z,951.1
2019-02-15T01:38:59.393Z,951
2019-02-15T01:39:59.717Z,951.1
2019-02-15T01:40:59.622Z,951
2019-02-15T01:41:59.535Z,951
2019-02-15T01:42:59.257Z,950.9
2019-02-15T01:43:58.999Z,951.1
2019-02-15T01:44:58.733Z,951
2019-02-15T01:45:58.459Z,950.8
2019-02-15T01:46:58.260Z,951
2019-02-15T01:47:57.993Z,951
2019-02-15T01:48:57.750Z,950.9
2019-02-15T01:49:58.087Z,949.5
2019-02-15T01:50:57.979Z,950.8
2019-02-15T01:51:57.857Z,951
2019-02-15T01:52:57.815Z,950.9
2019-02-15T01:53:57.693Z,950.8
2019-02-15T01:54:57.622Z,950.9
2019-02-15T01:55:57.507Z,950.8
2019-02-15T01:56:57.375Z,950.8
2019-02-15T01:57:57.259Z,950.8
2019-02-15T01:58:57.387Z,950.8
2019-02-15T01:59:57.977Z,950.8
2019-02-15T02:00:57.863Z,950.8
2019-02-15T02:01:57.771Z,950.9
2019-02-15T02:02:57.667Z,950.8
2019-02-15T02:03:57.399Z,950.8
2019-02-15T02:04:57.138Z,950.8
2019-02-15T02:05:56.882Z,950.8
2019-02-15T02:06:56.601Z,950.9
2019-02-15T02:07:56.343Z,950.7
2019-02-15T02:08:56.069Z,950
2019-02-15T02:09:56.371Z,950.8
2019-02-15T02:10:56.284Z,950.1
2019-02-15T02:11:56.209Z,950.8
2019-02-15T02:12:56.162Z,950.8
2019-02-15T02:13:56.069Z,950.7
2019-02-15T02:14:56.021Z,950.8
2019-02-15T02:15:55.953Z,950.7
2019-02-15T02:16:55.861Z,950.7
2019-02-15T02:17:55.743Z,950.7
2019-02-15T02:18:55.647Z,950.7
2019-02-15T02:19:55.981Z,950.8
2019-02-15T02:20:55.915Z,950.7
2019-02-15T02:21:55.843Z,949.5
2019-02-15T02:22:55.743Z,950.6
2019-02-15T02:23:55.645Z,950.6
2019-02-15T02:24:55.538Z,950.6
2019-02-15T02:25:55.423Z,950.7
2019-02-15T02:26:55.321Z,950.7
2019-02-15T02:27:55.243Z,950.7
2019-02-15T02:28:55.135Z,950.7
2019-02-15T02:29:55.501Z,950.8
2019-02-15T02:30:55.503Z,950.7
2019-02-15T02:31:55.421Z,950.7
2019-02-15T02:32:55.310Z,950.7
2019-02-15T02:33:55.216Z,950.7
2019-02-15T02:34:55.128Z,950.7
2019-02-15T02:35:55.016Z,950.7
2019-02-15T02:36:54.966Z,950.7
2019-02-15T02:37:54.921Z,950.6
2019-02-15T02:38:54.829Z,950.7
2019-02-15T02:39:55.400Z,950.7
2019-02-15T02:40:55.285Z,950.7
2019-02-15T02:41:55.173Z,950.7
2019-02-15T02:42:55.360Z,950.8
2019-02-15T02:44:00.899Z,950.5
2019-02-15T02:45:00.893Z,950.6
2019-02-15T02:46:00.924Z,950.7
2019-02-15T02:47:00.827Z,950.5
2019-02-15T02:48:00.749Z,950.7
2019-02-15T02:49:00.662Z,950.7
2019-02-15T02:50:01.145Z,950.6
2019-02-15T02:51:01.157Z,950.8
2019-02-15T02:52:01.049Z,950.6
2019-02-15T02:53:00.991Z,950.7
2019-02-15T02:54:00.947Z,950.7
2019-02-15T02:55:00.884Z,950.7
2019-02-15T02:56:00.805Z,950.7
2019-02-15T02:57:00.768Z,950.7
2019-02-15T02:58:00.713Z,950.7
2019-02-15T02:59:00.655Z,950.8
2019-02-15T03:00:01.324Z,950.7
2019-02-15T03:01:01.221Z,950.7
2019-02-15T03:02:01.160Z,950.7
2019-02-15T03:03:01.058Z,950.7
2019-02-15T03:04:00.940Z,950.7
2019-02-15T03:05:01.079Z,950.7
2019-02-15T03:06:01.003Z,950.6
2019-02-15T03:07:00.921Z,950.7
2019-02-15T03:08:00.824Z,950.6
2019-02-15T03:09:00.726Z,950.6
2019-02-15T03:10:01.257Z,950.7
2019-02-15T03:11:01.155Z,950.7
2019-02-15T03:12:01.315Z,950.7
2019-02-15T03:13:01.211Z,950.6
2019-02-15T03:14:12.667Z,950.5
2019-02-15T03:15:12.676Z,950.5
2019-02-15T03:16:12.595Z,950.6
2019-02-15T03:17:12.485Z,950.5
2019-02-15T03:18:12.379Z,950.5
2019-02-15T03:19:12.306Z,950.6
2019-02-15T03:20:12.682Z,950.6
2019-02-15T03:21:12.556Z,950.5
2019-02-15T03:22:12.448Z,950.5
2019-02-15T03:23:12.347Z,950.6
2019-02-15T03:24:12.483Z,950.5
2019-02-15T03:25:12.462Z,950.5
2019-02-15T03:26:12.377Z,950.4
2019-02-15T03:27:12.279Z,950.5
2019-02-15T03:28:12.201Z,950.5
2019-02-15T03:29:12.084Z,950.5
2019-02-15T03:30:12.548Z,950.5
2019-02-15T03:31:12.731Z,950.5
2019-02-15T03:32:12.737Z,950.5
2019-02-15T03:33:12.741Z,950.5
2019-02-15T03:34:12.702Z,950.4
2019-02-15T03:35:12.627Z,950.6
2019-02-15T03:36:12.600Z,950.5
2019-02-15T03:37:12.518Z,950.5
2019-02-15T03:38:12.433Z,950.4
2019-02-15T03:39:12.339Z,950.4
2019-02-15T03:40:12.709Z,950.4
2019-02-15T03:41:12.623Z,950.5
2019-02-15T03:42:12.576Z,950.4
2019-02-15T03:43:12.485Z,950.4
2019-02-15T03:44:23.534Z,950.4
2019-02-15T03:45:23.461Z,950.4
2019-02-15T03:46:23.401Z,950.4
2019-02-15T03:47:23.329Z,950.2
2019-02-15T03:48:23.233Z,950.3
2019-02-15T03:49:23.195Z,950.3
2019-02-15T03:50:23.589Z,949.6
2019-02-15T03:51:23.499Z,950.3
2019-02-15T03:52:23.649Z,950.3
2019-02-15T03:53:23.633Z,950.2
2019-02-15T03:54:23.547Z,950.3
2019-02-15T03:55:23.477Z,950.2
2019-02-15T03:56:23.356Z,950.3
2019-02-15T03:57:23.381Z,950.3
2019-02-15T03:58:23.369Z,950.3
2019-02-15T03:59:23.342Z,950.3
2019-02-15T04:00:23.704Z,950.3
2019-02-15T04:01:23.600Z,950.3
2019-02-15T04:02:23.509Z,950.3
2019-02-15T04:03:23.445Z,950.3
2019-02-15T04:04:23.615Z,950.3
2019-02-15T04:05:23.500Z,950.3
2019-02-15T04:06:23.411Z,950.3
2019-02-15T04:07:23.339Z,950.2
2019-02-15T04:08:23.280Z,950.2
2019-02-15T04:09:23.224Z,950.2
2019-02-15T04:10:23.606Z,950.2
2019-02-15T04:11:23.506Z,950.2
2019-02-15T04:12:23.459Z,950.2
2019-02-15T04:13:23.372Z,950.1
2019-02-15T04:14:34.257Z,950.1
2019-02-15T04:15:34.179Z,950.3
2019-02-15T04:16:34.080Z,950.3
2019-02-15T04:17:33.989Z,950.3
2019-02-15T04:18:33.914Z,950.2
2019-02-15T04:19:33.818Z,950.2
2019-02-15T04:20:34.134Z,950.3
2019-02-15T04:21:34.054Z,950.2
2019-02-15T04:22:33.967Z,950.1
2019-02-15T04:23:33.958Z,950.2
2019-02-15T04:24:33.882Z,950.2
2019-02-15T04:25:33.824Z,950.2
2019-02-15T04:26:33.827Z,950.2
2019-02-15T04:27:33.752Z,950.1
2019-02-15T04:28:33.700Z,950.2
2019-02-15T04:29:33.633Z,950
2019-02-15T04:30:33.983Z,950.3
2019-02-15T04:31:33.916Z,950.2
2019-02-15T04:32:33.834Z,950.3
2019-02-15T04:33:33.760Z,950.3
2019-02-15T04:34:33.674Z,950.3
2019-02-15T04:35:33.587Z,950.1
2019-02-15T04:36:33.548Z,950.3
2019-02-15T04:37:33.442Z,950.2
2019-02-15T04:38:33.344Z,950.3
2019-02-15T04:39:33.241Z,950.3
2019-02-15T04:40:33.616Z,950.2
2019-02-15T04:41:33.616Z,950.2
2019-02-15T04:42:33.534Z,950.3
2019-02-15T04:43:33.432Z,950.1
2019-02-15T04:44:43.942Z,950.3
2019-02-15T04:45:43.868Z,950.3
2019-02-15T04:46:43.862Z,950.3
2019-02-15T04:47:43.782Z,950.4
2019-02-15T04:48:43.677Z,950.4
2019-02-15T04:49:43.807Z,950.2
2019-02-15T04:50:44.216Z,950.3
2019-02-15T04:51:44.123Z,950.2
2019-02-15T04:52:44.042Z,949.7
2019-02-15T04:53:43.960Z,949.6
2019-02-15T04:54:43.927Z,950.3
2019-02-15T04:55:43.914Z,950.3
2019-02-15T04:56:43.863Z,950.2
2019-02-15T04:57:43.774Z,950.1
2019-02-15T04:58:43.676Z,949.3
2019-02-15T04:59:43.586Z,950.3
2019-02-15T05:00:43.944Z,950.2
2019-02-15T05:01:43.890Z,950.1
2019-02-15T05:02:43.784Z,950.1
2019-02-15T05:03:43.656Z,950.3
2019-02-15T05:04:43.794Z,950.3
2019-02-15T05:05:43.703Z,950.3
2019-02-15T05:06:43.684Z,950.3
2019-02-15T05:07:43.611Z,950.1
2019-02-15T05:08:43.508Z,950.3
2019-02-15T05:09:43.422Z,950.4
2019-02-15T05:10:43.793Z,950.3
2019-02-15T05:11:43.736Z,950.3
2019-02-15T05:12:43.464Z,950.3
2019-02-15T05:13:43.225Z,950.2
2019-02-15T05:14:53.785Z,950.2
2019-02-15T05:15:53.552Z,950.3
2019-02-15T05:16:53.315Z,950.2
2019-02-15T05:17:53.058Z,950.3
2019-02-15T05:18:52.778Z,950.3
2019-02-15T05:19:52.520Z,950.2
2019-02-15T05:20:52.834Z,950.3
2019-02-15T05:21:52.738Z,950.1
2019-02-15T05:22:52.639Z,950.1
2019-02-15T05:23:52.628Z,950.3
2019-02-15T05:24:52.516Z,950.3
2019-02-15T05:25:52.452Z,949.4
2019-02-15T05:26:52.429Z,950.3
2019-02-15T05:27:52.329Z,950.4
2019-02-15T05:28:52.230Z,950.3
2019-02-15T05:29:52.140Z,950.2
2019-02-15T05:30:52.468Z,950.3
2019-02-15T05:31:52.374Z,950.3
2019-02-15T05:32:52.286Z,950
2019-02-15T05:33:52.196Z,950.2
2019-02-15T05:34:52.088Z,950
2019-02-15T05:35:52.012Z,950.2
2019-02-15T05:36:51.916Z,949.3
2019-02-15T05:37:51.834Z,950.2
2019-02-15T05:38:51.734Z,950.2
2019-02-15T05:39:51.654Z,950.2
2019-02-15T05:40:52.098Z,950.2
2019-02-15T05:41:52.003Z,950.1
2019-02-15T05:42:51.910Z,950.2
2019-02-15T05:43:51.825Z,950.2
2019-02-15T05:44:51.718Z,950.1
2019-02-15T05:45:51.679Z,950.1
2019-02-15T05:46:52.612Z,950.1
2019-02-15T05:47:52.535Z,950.1
2019-02-15T05:48:52.462Z,950.1
2019-02-15T05:49:52.382Z,950.2
2019-02-15T05:50:52.750Z,950.1
2019-02-15T05:51:52.652Z,950.1
2019-02-15T05:52:52.563Z,950.2
2019-02-15T05:53:52.450Z,950.1
2019-02-15T05:54:52.376Z,950.1
2019-02-15T05:55:52.334Z,950
2019-02-15T05:56:52.222Z,950
2019-02-15T05:57:52.183Z,950
2019-02-15T05:58:52.060Z,950
2019-02-15T05:59:52.200Z,950
2019-02-15T06:00:52.787Z,950.1
2019-02-15T06:01:52.710Z,950
2019-02-15T06:02:52.632Z,950
2019-02-15T06:03:52.555Z,950.1
2019-02-15T06:04:52.505Z,950
2019-02-15T06:05:52.452Z,950.1
2019-02-15T06:06:52.348Z,950
2019-02-15T06:07:52.270Z,950
2019-02-15T06:08:52.166Z,949.9
2019-02-15T06:09:52.093Z,950
2019-02-15T06:10:52.428Z,949.9
2019-02-15T06:11:52.359Z,948.5
2019-02-15T06:12:52.268Z,950
2019-02-15T06:13:52.162Z,950
2019-02-15T06:14:52.050Z,949.8
2019-02-15T06:15:51.932Z,949.9
2019-02-15T06:16:51.935Z,949.9
2019-02-15T06:17:51.842Z,950
2019-02-15T06:18:51.745Z,949.9
2019-02-15T06:19:51.715Z,950
2019-02-15T06:20:52.032Z,950
2019-02-15T06:21:52.440Z,949.9
2019-02-15T06:22:52.184Z,949.9
2019-02-15T06:23:51.930Z,949.9
2019-02-15T06:24:51.659Z,949.9
2019-02-15T06:25:51.399Z,949.8
2019-02-15T06:26:51.141Z,950
2019-02-15T06:27:51.139Z,950
2019-02-15T06:28:50.879Z,950
2019-02-15T06:29:50.612Z,949.8
2019-02-15T06:30:50.956Z,950
2019-02-15T06:31:50.868Z,950
2019-02-15T06:32:50.810Z,950
2019-02-15T06:33:50.738Z,949.8
2019-02-15T06:34:50.631Z,950
2019-02-15T06:35:50.570Z,950
2019-02-15T06:36:50.505Z,950.1
2019-02-15T06:37:50.438Z,950.1
2019-02-15T06:38:50.374Z,949.9
2019-02-15T06:39:50.290Z,950
2019-02-15T06:40:50.603Z,950.1
2019-02-15T06:41:50.498Z,950.1
2019-02-15T06:42:50.447Z,950
2019-02-15T06:43:50.399Z,950
2019-02-15T06:44:50.310Z,949.9
2019-02-15T06:45:50.196Z,950.1
2019-02-15T06:46:50.110Z,950.1
2019-02-15T06:47:50.025Z,950.3
2019-02-15T06:48:49.979Z,950.2
2019-02-15T06:49:49.895Z,950.2
2019-02-15T06:50:50.268Z,950
2019-02-15T06:51:50.185Z,950.2
2019-02-15T06:52:50.120Z,950.3
2019-02-15T06:53:50.090Z,950.3
2019-02-15T06:54:49.828Z,950.3
2019-02-15T06:55:49.568Z,950.2
2019-02-15T06:56:49.316Z,950.3
2019-02-15T06:57:49.045Z,950.3
2019-02-15T06:58:48.780Z,950.3
2019-02-15T06:59:48.522Z,950.3
2019-02-15T07:00:48.842Z,950.3
2019-02-15T07:01:48.918Z,950.3
2019-02-15T07:02:48.801Z,950.3
2019-02-15T07:03:48.935Z,950.3
2019-02-15T07:04:48.834Z,950.3
2019-02-15T07:05:48.759Z,950.2
2019-02-15T07:06:48.664Z,950.3
2019-02-15T07:07:48.704Z,950.4
2019-02-15T07:08:48.588Z,950.2
2019-02-15T07:09:48.472Z,950.3
2019-02-15T07:10:48.900Z,950.3
2019-02-15T07:11:48.911Z,950.3
2019-02-15T07:12:49.022Z,950.2
2019-02-15T07:13:48.959Z,950.1
2019-02-15T07:14:48.895Z,950.3
2019-02-15T07:15:48.852Z,950.2
2019-02-15T07:16:48.748Z,950.2
2019-02-15T07:17:48.903Z,949.6
2019-02-15T07:18:48.855Z,950.2
2019-02-15T07:19:48.732Z,950.3
2019-02-15T07:20:49.099Z,950.3
2019-02-15T07:21:49.001Z,950.2
2019-02-15T07:22:48.923Z,950.2
2019-02-15T07:23:49.027Z,950.3
2019-02-15T07:24:49.009Z,950.2
2019-02-15T07:25:48.920Z,950.2
2019-02-15T07:26:48.825Z,950.2
2019-02-15T07:27:48.718Z,950.2
2019-02-15T07:28:48.610Z,950.2
2019-02-15T07:29:48.501Z,950.2
2019-02-15T07:30:48.887Z,950.2
2019-02-15T07:31:48.806Z,950.1
2019-02-15T07:32:48.900Z,950.2
2019-02-15T07:33:48.772Z,950.2
2019-02-15T07:34:48.530Z,950.2
2019-02-15T07:35:48.323Z,950.2
2019-02-15T07:36:49.197Z,950.2
2019-02-15T07:37:49.150Z,948.7
2019-02-15T07:38:48.902Z,950.2
2019-02-15T07:39:48.719Z,950
2019-02-15T07:40:49.091Z,950.1
2019-02-15T07:41:49.045Z,950.1
2019-02-15T07:42:48.945Z,950
2019-02-15T07:43:48.841Z,950
2019-02-15T07:44:48.751Z,949.9
2019-02-15T07:45:48.799Z,950.1
2019-02-15T07:46:48.897Z,948.8
2019-02-15T07:47:48.982Z,949.9
2019-02-15T07:48:48.877Z,949.9
2019-02-15T07:49:48.803Z,949.5
2019-02-15T07:50:49.377Z,950.1
2019-02-15T07:51:49.281Z,950.2
2019-02-15T07:52:49.173Z,950.1
2019-02-15T07:53:49.091Z,950.1
2019-02-15T07:54:49.001Z,950.2
2019-02-15T07:55:48.911Z,950.1
2019-02-15T07:56:48.887Z,950.1
2019-02-15T07:57:48.856Z,950.1
2019-02-15T07:58:48.786Z,950.2
2019-02-15T07:59:48.675Z,950.2
2019-02-15T08:00:49.039Z,950.2
2019-02-15T08:01:48.955Z,950.1
2019-02-15T08:02:48.913Z,950.2
2019-02-15T08:03:48.955Z,950.2
2019-02-15T08:04:48.844Z,950.2
2019-02-15T08:05:48.764Z,950.2
2019-02-15T08:06:48.919Z,950.3
2019-02-15T08:07:48.919Z,950.1
2019-02-15T08:08:48.819Z,950.1
2019-02-15T08:09:48.713Z,950.2
2019-02-15T08:10:49.386Z,950.3
2019-02-15T08:11:49.323Z,950.2
2019-02-15T08:12:49.221Z,950.2
2019-02-15T08:13:49.365Z,950.1
2019-02-15T08:14:49.287Z,950.3
2019-02-15T08:15:53.023Z,950.3
2019-02-15T08:16:52.923Z,950.3
2019-02-15T08:17:52.834Z,950.2
2019-02-15T08:18:52.755Z,950.2
2019-02-15T08:19:52.639Z,950.2
2019-02-15T08:20:52.956Z,950.2
2019-02-15T08:21:52.882Z,950.2
2019-02-15T08:22:52.795Z,950.3
2019-02-15T08:23:52.703Z,950.1
2019-02-15T08:24:52.593Z,950.2
2019-02-15T08:25:52.497Z,950.2
2019-02-15T08:26:52.396Z,950.2
2019-02-15T08:27:52.323Z,950.1
2019-02-15T08:28:52.252Z,950.3
2019-02-15T08:29:52.143Z,950.2
2019-02-15T08:30:52.473Z,950.3
2019-02-15T08:31:52.367Z,949
2019-02-15T08:32:52.291Z,950.3
2019-02-15T08:33:52.185Z,950.2
2019-02-15T08:34:52.069Z,950.2
2019-02-15T08:35:53.062Z,950.2
2019-02-15T08:36:52.957Z,950.2
2019-02-15T08:37:52.879Z,950.2
2019-02-15T08:38:53.835Z,950.1
2019-02-15T08:39:53.753Z,949.2
2019-02-15T08:40:54.087Z,950.3
2019-02-15T08:42:05.201Z,950.3
2019-02-15T08:43:05.127Z,950.2
2019-02-15T08:44:05.055Z,950.3
2019-02-15T08:45:04.963Z,950.3
2019-02-15T08:46:04.867Z,950.3
2019-02-15T08:47:04.790Z,950.3
2019-02-15T08:48:04.707Z,950.3
2019-02-15T08:49:04.615Z,950.4
2019-02-15T08:50:04.522Z,950.4
2019-02-15T08:51:04.857Z,950.3
2019-02-15T08:52:04.758Z,950.4
2019-02-15T08:53:04.675Z,950.4
2019-02-15T08:54:04.639Z,950.4
2019-02-15T08:55:04.539Z,950.3
2019-02-15T08:56:04.426Z,950.4
2019-02-15T08:57:04.339Z,950.4
2019-02-15T08:58:04.227Z,950.3
2019-02-15T08:59:04.106Z,950.2
2019-02-15T09:00:04.009Z,950.2
2019-02-15T09:01:04.369Z,950.4
2019-02-15T09:02:04.397Z,950.3
2019-02-15T09:03:04.293Z,950.3
2019-02-15T09:04:04.198Z,950.4
2019-02-15T09:05:04.161Z,949.8
2019-02-15T09:06:04.061Z,950.3
2019-02-15T09:07:03.970Z,948.9
2019-02-15T09:08:03.893Z,950.3
2019-02-15T09:09:03.805Z,950.4
2019-02-15T09:10:03.717Z,950.4
2019-02-15T09:11:04.041Z,950.4
2019-02-15T09:12:04.019Z,950.3
2019-02-15T09:13:03.938Z,950.3
2019-02-15T09:14:03.844Z,950.3
2019-02-15T09:15:03.792Z,950.3
2019-02-15T09:16:11.464Z,950.4
2019-02-15T09:17:11.397Z,950.3
2019-02-15T09:18:11.302Z,950.4
2019-02-15T09:19:11.203Z,950.3
2019-02-15T09:20:11.164Z,950.4
2019-02-15T09:21:11.554Z,950.4
2019-02-15T09:22:11.457Z,950.5
2019-02-15T09:23:13.157Z,950.5
2019-02-15T09:24:13.051Z,950.4
2019-02-15T09:25:12.995Z,950.3
2019-02-15T09:26:19.216Z,950.5
2019-02-15T09:27:19.108Z,950.5
2019-02-15T09:28:19.013Z,950.5
2019-02-15T09:29:18.918Z,950.5
2019-02-15T09:30:18.847Z,950.3
2019-02-15T09:31:19.179Z,950.3
2019-02-15T09:32:19.077Z,950.4
2019-02-15T09:33:18.963Z,950.4
2019-02-15T09:34:18.862Z,950.4
2019-02-15T09:35:18.763Z,950.4
2019-02-15T09:36:18.670Z,950.4
2019-02-15T09:37:18.560Z,950.4
2019-02-15T09:38:18.449Z,950.4
2019-02-15T09:39:18.356Z,950.4
2019-02-15T09:40:18.267Z,950.4
2019-02-15T09:41:18.655Z,950.5
2019-02-15T09:42:18.551Z,950.4
2019-02-15T09:43:18.438Z,949.8
2019-02-15T09:44:18.333Z,950.3
2019-02-15T09:45:18.240Z,950.3
2019-02-15T09:46:21.169Z,950.4
2019-02-15T09:47:21.085Z,950.4
2019-02-15T09:48:21.085Z,950.4
2019-02-15T09:49:25.000Z,950.5
2019-02-15T09:50:24.901Z,950.4
2019-02-15T09:51:25.271Z,950.4
2019-02-15T09:52:25.149Z,950.3
2019-02-15T09:53:25.037Z,950.4
2019-02-15T09:54:24.979Z,950.4
2019-02-15T09:55:24.857Z,950.3
2019-02-15T09:56:24.759Z,950.3
2019-02-15T09:57:24.653Z,950.4
2019-02-15T09:58:24.552Z,950.4
2019-02-15T09:59:24.487Z,950.4
2019-02-15T10:00:24.389Z,950.5
2019-02-15T10:01:24.745Z,950.5
2019-02-15T10:02:24.627Z,950.5
2019-02-15T10:03:24.529Z,950.5
2019-02-15T10:04:24.485Z,950.5
2019-02-15T10:05:24.407Z,950.4
2019-02-15T10:06:24.305Z,950.5
2019-02-15T10:07:24.195Z,950.5
2019-02-15T10:08:24.103Z,950.5
2019-02-15T10:09:24.031Z,950.5
2019-02-15T10:10:23.925Z,950.6
2019-02-15T10:11:24.325Z,950.6
2019-02-15T10:12:24.301Z,950.5
2019-02-15T10:13:24.203Z,950.5
2019-02-15T10:14:24.100Z,950.5
2019-02-15T10:15:23.989Z,950.5
2019-02-15T10:16:32.237Z,950.5
2019-02-15T10:17:32.142Z,950.6
2019-02-15T10:18:32.049Z,950.5
2019-02-15T10:19:31.922Z,950.5
2019-02-15T10:20:31.819Z,950.6
2019-02-15T10:21:32.167Z,950.5
2019-02-15T10:22:32.076Z,950.5
2019-02-15T10:23:31.982Z,950.5
2019-02-15T10:24:31.884Z,950.6
2019-02-15T10:25:31.847Z,950.6
2019-02-15T10:26:31.767Z,950.5
2019-02-15T10:27:31.664Z,950.4
2019-02-15T10:28:31.591Z,950.5
2019-02-15T10:29:31.506Z,950.6
2019-02-15T10:30:31.401Z,950.5
2019-02-15T10:31:31.713Z,950.4
2019-02-15T10:32:31.628Z,950.5
2019-02-15T10:33:31.499Z,950.5
2019-02-15T10:34:31.403Z,950.5
2019-02-15T10:35:31.316Z,950.5
2019-02-15T10:36:31.239Z,950.4
2019-02-15T10:37:31.146Z,950.4
2019-02-15T10:38:31.028Z,950.5
2019-02-15T10:39:30.932Z,950.4
2019-02-15T10:40:30.835Z,950.4
2019-02-15T10:41:31.234Z,949.1
2019-02-15T10:42:31.164Z,950.4
2019-02-15T10:43:31.059Z,950.4
2019-02-15T10:44:30.969Z,950.4
2019-02-15T10:45:30.895Z,950.4
2019-02-15T10:46:38.854Z,950.5
2019-02-15T10:47:38.774Z,950.4
2019-02-15T10:48:38.704Z,950.4
2019-02-15T10:49:38.611Z,950.5
2019-02-15T10:50:38.369Z,950.4
2019-02-15T10:51:38.760Z,950.2
2019-02-15T10:52:38.740Z,950.4
2019-02-15T10:53:38.632Z,950.3
2019-02-15T10:54:38.560Z,950.4
2019-02-15T10:55:39.088Z,950.3
2019-02-15T10:56:39.052Z,950.3
2019-02-15T10:57:38.986Z,950.4
2019-02-15T10:58:38.974Z,950.4
2019-02-15T10:59:38.871Z,950.3
2019-02-15T11:00:38.812Z,950.2
2019-02-15T11:01:39.166Z,950.3
2019-02-15T11:02:39.112Z,950.3
2019-02-15T11:03:39.019Z,950.3
2019-02-15T11:04:40.972Z,950.3
2019-02-15T11:05:41.054Z,950.3
2019-02-15T11:06:40.965Z,950.3
2019-02-15T11:07:40.856Z,950.3
2019-02-15T11:08:40.738Z,949.7
2019-02-15T11:09:40.704Z,950.3
2019-02-15T11:10:40.610Z,950.3
2019-02-15T11:11:40.966Z,949.7
2019-02-15T11:12:40.957Z,950.3
2019-02-15T11:13:40.870Z,950.3
2019-02-15T11:14:40.762Z,950.3
2019-02-15T11:15:40.661Z,950.2
2019-02-15T11:16:48.310Z,950.3
2019-02-15T11:17:48.450Z,950.3
2019-02-15T11:18:48.392Z,950.3
2019-02-15T11:19:48.400Z,950.3
2019-02-15T11:20:48.362Z,950.3
2019-02-15T11:21:48.922Z,950.2
2019-02-15T11:22:48.927Z,950.2
2019-02-15T11:23:48.828Z,950.2
2019-02-15T11:24:48.742Z,950.3
2019-02-15T11:25:48.876Z,950.2
2019-02-15T11:26:48.898Z,950.2
2019-02-15T11:27:48.866Z,950.2
2019-02-15T11:28:48.885Z,950.2
2019-02-15T11:29:48.910Z,950.2
2019-02-15T11:30:48.895Z,950.2
2019-02-15T11:31:49.276Z,950.1
2019-02-15T11:32:49.180Z,950.1
2019-02-15T11:33:49.288Z,950
2019-02-15T11:34:49.171Z,950.2
2019-02-15T11:35:49.084Z,950
2019-02-15T11:36:48.988Z,950
2019-02-15T11:37:48.884Z,950.2
2019-02-15T11:38:48.890Z,950.1
2019-02-15T11:39:48.791Z,950.1
2019-02-15T11:40:48.922Z,950
2019-02-15T11:41:49.247Z,949.9
2019-02-15T11:42:49.150Z,949.9
2019-02-15T11:43:49.107Z,950
2019-02-15T11:44:49.019Z,950
2019-02-15T11:45:48.914Z,950
2019-02-15T11:46:57.672Z,950
2019-02-15T11:47:57.561Z,950
2019-02-15T11:48:57.466Z,950
2019-02-15T11:49:57.356Z,950
2019-02-15T11:50:57.253Z,950
2019-02-15T11:51:57.574Z,950
2019-02-15T11:52:57.468Z,950
2019-02-15T11:53:59.486Z,949.9
2019-02-15T11:54:59.399Z,950
2019-02-15T11:55:59.280Z,950
2019-02-15T11:56:59.186Z,949.9
2019-02-15T11:57:59.086Z,948.7
2019-02-15T11:58:58.968Z,949.9
2019-02-15T11:59:58.842Z,949.9
2019-02-15T12:00:58.760Z,949.9
2019-02-15T12:02:07.405Z,949.2
2019-02-15T12:03:07.303Z,949.8
2019-02-15T12:04:07.648Z,949.8
2019-02-15T12:05:07.566Z,949.9
2019-02-15T12:06:07.465Z,949.8
2019-02-15T12:07:07.353Z,949.8
2019-02-15T12:08:07.270Z,949.9
2019-02-15T12:09:07.158Z,949.8
2019-02-15T12:10:07.072Z,949.8
2019-02-15T12:11:06.999Z,949.8
2019-02-15T12:12:11.852Z,949.8
2019-02-15T12:13:11.754Z,949.8
2019-02-15T12:14:11.665Z,949.8
2019-02-15T12:15:11.577Z,949.7
2019-02-15T12:16:11.462Z,950
2019-02-15T12:17:11.363Z,949.9
2019-02-15T12:18:11.251Z,949.9
2019-02-15T12:19:11.154Z,949.9
2019-02-15T12:20:11.058Z,949.8
2019-02-15T12:21:11.015Z,949.5
2019-02-15T12:22:20.734Z,949.8
2019-02-15T12:23:20.932Z,949.3
2019-02-15T12:24:20.659Z,949.8
2019-02-15T12:25:20.414Z,949.8
2019-02-15T12:26:20.317Z,949.9
2019-02-15T12:27:20.241Z,949
2019-02-15T12:28:20.150Z,949.4
2019-02-15T12:29:20.051Z,949.9
2019-02-15T12:30:19.960Z,949.8
2019-02-15T12:31:19.855Z,949.7
2019-02-15T12:32:19.778Z,949.4
2019-02-15T12:33:20.216Z,949.7
2019-02-15T12:34:20.115Z,949.9
2019-02-15T12:35:20.007Z,949.9
2019-02-15T12:36:19.925Z,949.8
2019-02-15T12:37:19.921Z,949.8
2019-02-15T12:38:19.808Z,949.5
2019-02-15T12:39:19.726Z,949.8
2019-02-15T12:40:19.628Z,949.8
2019-02-15T12:41:19.525Z,949.8
2019-02-15T12:42:19.449Z,949.8
2019-02-15T12:43:19.771Z,949.9
2019-02-15T12:44:19.653Z,949.8
2019-02-15T12:45:19.620Z,949.8
2019-02-15T12:46:19.531Z,949.8
2019-02-15T12:47:19.469Z,949.8
2019-02-15T12:48:19.383Z,949.7
2019-02-15T12:49:19.295Z,949.7
2019-02-15T12:50:19.201Z,949.8
2019-02-15T12:51:19.115Z,949.7
2019-02-15T12:52:19.041Z,949.8
2019-02-15T12:53:19.427Z,949.8
2019-02-15T12:54:19.303Z,949.8
2019-02-15T12:55:19.207Z,949.8
2019-02-15T12:56:19.122Z,949.7
2019-02-15T12:57:19.089Z,949.8
2019-02-15T12:58:19.019Z,949.8